sensor_id;sensor_type;location;lat;lon;timestamp;temperature;humidity
51950;DHT22;37974;53.218;6.640;2024-02-28T00:01:50;2.50;99.90
51950;DHT22;37974;53.218;6.640;2024-02-28T00:04:16;2.20;99.90
51950;DHT22;37974;53.218;6.640;2024-02-28T00:06:42;2.30;99.90
51950;DHT22;37974;53.218;6.640;2024-02-28T00:09:07;3.20;99.90
51950;DHT22;37974;53.218;6.640;2024-02-28T00:11:33;2.50;99.90
51950;DHT22;37974;53.218;6.640;2024-02-28T00:13:59;3.10;99.90
51950;DHT22;37974;53.218;6.640;2024-02-28T00:16:27;2.40;99.90
51950;DHT22;37974;53.218;6.640;2024-02-28T00:18:52;3.30;99.90
51950;DHT22;37974;53.218;6.640;2024-02-28T00:21:18;2.90;99.90
51950;DHT22;37974;53.218;6.640;2024-02-28T00:23:44;2.20;99.90
51950;DHT22;37974;53.218;6.640;2024-02-28T00:26:11;2.70;99.90
51950;DHT22;37974;53.218;6.640;2024-02-28T00:28:37;2.20;99.90
51950;DHT22;37974;53.218;6.640;2024-02-28T00:31:03;2.40;99.90
51950;DHT22;37974;53.218;6.640;2024-02-28T00:33:29;2.20;99.90
51950;DHT22;37974;53.218;6.640;2024-02-28T00:35:54;2.80;99.90
51950;DHT22;37974;53.218;6.640;2024-02-28T00:38:20;2.70;99.90
51950;DHT22;37974;53.218;6.640;2024-02-28T00:40:46;2.20;99.90
51950;DHT22;37974;53.218;6.640;2024-02-28T00:43:11;2.20;99.90
51950;DHT22;37974;53.218;6.640;2024-02-28T00:45:38;2.10;99.90
51950;DHT22;37974;53.218;6.640;2024-02-28T00:48:04;2.70;99.90
51950;DHT22;37974;53.218;6.640;2024-02-28T00:50:29;2.20;99.90
51950;DHT22;37974;53.218;6.640;2024-02-28T00:52:55;2.20;99.90
51950;DHT22;37974;53.218;6.640;2024-02-28T00:55:21;2.10;99.90
51950;DHT22;37974;53.218;6.640;2024-02-28T00:57:46;2.40;99.90
51950;DHT22;37974;53.218;6.640;2024-02-28T01:00:12;2.60;99.90
51950;DHT22;37974;53.218;6.640;2024-02-28T01:02:39;2.10;99.90
51950;DHT22;37974;53.218;6.640;2024-02-28T01:05:07;2.20;99.90
51950;DHT22;37974;53.218;6.640;2024-02-28T01:07:33;2.10;99.90
51950;DHT22;37974;53.218;6.640;2024-02-28T01:09:58;2.10;99.90
51950;DHT22;37974;53.218;6.640;2024-02-28T01:12:24;2.20;99.90
51950;DHT22;37974;53.218;6.640;2024-02-28T01:14:50;2.20;99.90
51950;DHT22;37974;53.218;6.640;2024-02-28T01:17:16;2.50;99.90
51950;DHT22;37974;53.218;6.640;2024-02-28T01:19:41;2.80;99.90
51950;DHT22;37974;53.218;6.640;2024-02-28T01:22:07;3.00;99.90
51950;DHT22;37974;53.218;6.640;2024-02-28T01:24:34;2.20;99.90
51950;DHT22;37974;53.218;6.640;2024-02-28T01:27:00;2.90;99.90
51950;DHT22;37974;53.218;6.640;2024-02-28T01:29:26;2.50;99.90
51950;DHT22;37974;53.218;6.640;2024-02-28T01:31:51;2.50;99.90
51950;DHT22;37974;53.218;6.640;2024-02-28T01:34:17;2.50;99.90
51950;DHT22;37974;53.218;6.640;2024-02-28T01:36:44;3.20;99.90
51950;DHT22;37974;53.218;6.640;2024-02-28T01:39:09;2.30;99.90
51950;DHT22;37974;53.218;6.640;2024-02-28T01:41:35;2.60;99.90
51950;DHT22;37974;53.218;6.640;2024-02-28T01:44:01;2.30;99.90
51950;DHT22;37974;53.218;6.640;2024-02-28T01:46:28;2.30;99.90
51950;DHT22;37974;53.218;6.640;2024-02-28T01:48:55;2.90;99.90
51950;DHT22;37974;53.218;6.640;2024-02-28T01:51:22;2.80;99.90
51950;DHT22;37974;53.218;6.640;2024-02-28T01:53:50;2.50;99.90
51950;DHT22;37974;53.218;6.640;2024-02-28T01:56:16;2.20;99.90
51950;DHT22;37974;53.218;6.640;2024-02-28T01:58:46;2.60;99.90
51950;DHT22;37974;53.218;6.640;2024-02-28T02:01:14;2.30;99.90
51950;DHT22;37974;53.218;6.640;2024-02-28T02:03:40;2.50;99.90
51950;DHT22;37974;53.218;6.640;2024-02-28T02:06:06;2.70;99.90
51950;DHT22;37974;53.218;6.640;2024-02-28T02:08:32;2.20;99.90
51950;DHT22;37974;53.218;6.640;2024-02-28T02:10:59;2.30;99.90
51950;DHT22;37974;53.218;6.640;2024-02-28T02:13:25;2.20;99.90
51950;DHT22;37974;53.218;6.640;2024-02-28T02:15:50;2.20;99.90
51950;DHT22;37974;53.218;6.640;2024-02-28T02:18:16;2.30;99.90
51950;DHT22;37974;53.218;6.640;2024-02-28T02:20:44;2.80;99.90
51950;DHT22;37974;53.218;6.640;2024-02-28T02:23:12;3.00;99.90
51950;DHT22;37974;53.218;6.640;2024-02-28T02:25:46;2.80;99.90
51950;DHT22;37974;53.218;6.640;2024-02-28T02:28:12;2.20;99.90
51950;DHT22;37974;53.218;6.640;2024-02-28T02:30:39;2.60;99.90
51950;DHT22;37974;53.218;6.640;2024-02-28T02:33:05;2.50;99.90
51950;DHT22;37974;53.218;6.640;2024-02-28T02:35:31;2.30;99.90
51950;DHT22;37974;53.218;6.640;2024-02-28T02:37:57;2.90;99.90
51950;DHT22;37974;53.218;6.640;2024-02-28T02:40:22;2.80;99.90
51950;DHT22;37974;53.218;6.640;2024-02-28T02:42:48;2.60;99.90
51950;DHT22;37974;53.218;6.640;2024-02-28T02:45:14;2.70;99.90
51950;DHT22;37974;53.218;6.640;2024-02-28T02:47:40;2.40;99.90
51950;DHT22;37974;53.218;6.640;2024-02-28T02:50:05;2.20;99.90
51950;DHT22;37974;53.218;6.640;2024-02-28T02:52:32;2.10;99.90
51950;DHT22;37974;53.218;6.640;2024-02-28T02:54:57;2.10;99.90
51950;DHT22;37974;53.218;6.640;2024-02-28T02:57:23;2.10;99.90
51950;DHT22;37974;53.218;6.640;2024-02-28T02:59:49;2.60;99.90
51950;DHT22;37974;53.218;6.640;2024-02-28T03:02:15;3.20;99.90
51950;DHT22;37974;53.218;6.640;2024-02-28T03:04:40;2.40;99.90
51950;DHT22;37974;53.218;6.640;2024-02-28T03:07:06;2.70;99.90
51950;DHT22;37974;53.218;6.640;2024-02-28T03:09:32;2.70;99.90
51950;DHT22;37974;53.218;6.640;2024-02-28T03:11:57;2.30;99.90
51950;DHT22;37974;53.218;6.640;2024-02-28T03:14:23;2.30;99.90
51950;DHT22;37974;53.218;6.640;2024-02-28T03:16:50;2.20;99.90
51950;DHT22;37974;53.218;6.640;2024-02-28T03:19:16;2.70;99.90
51950;DHT22;37974;53.218;6.640;2024-02-28T03:21:42;2.40;99.90
51950;DHT22;37974;53.218;6.640;2024-02-28T03:24:07;2.10;99.90
51950;DHT22;37974;53.218;6.640;2024-02-28T03:26:33;2.20;99.90
51950;DHT22;37974;53.218;6.640;2024-02-28T03:28:59;2.30;99.90
51950;DHT22;37974;53.218;6.640;2024-02-28T03:31:25;2.80;99.90
51950;DHT22;37974;53.218;6.640;2024-02-28T03:33:51;2.80;99.90
51950;DHT22;37974;53.218;6.640;2024-02-28T03:36:17;2.70;99.90
51950;DHT22;37974;53.218;6.640;2024-02-28T03:38:43;2.20;99.90
51950;DHT22;37974;53.218;6.640;2024-02-28T03:41:09;2.50;99.90
51950;DHT22;37974;53.218;6.640;2024-02-28T03:43:35;2.20;99.90
51950;DHT22;37974;53.218;6.640;2024-02-28T03:46:01;2.40;99.90
51950;DHT22;37974;53.218;6.640;2024-02-28T03:48:27;2.20;99.90
51950;DHT22;37974;53.218;6.640;2024-02-28T03:50:52;2.00;99.90
51950;DHT22;37974;53.218;6.640;2024-02-28T03:53:18;2.00;99.90
51950;DHT22;37974;53.218;6.640;2024-02-28T03:55:44;2.70;99.90
51950;DHT22;37974;53.218;6.640;2024-02-28T03:58:10;2.30;99.90
51950;DHT22;37974;53.218;6.640;2024-02-28T04:00:36;2.90;99.90
51950;DHT22;37974;53.218;6.640;2024-02-28T04:03:03;3.00;99.90
51950;DHT22;37974;53.218;6.640;2024-02-28T04:05:29;2.20;99.90
51950;DHT22;37974;53.218;6.640;2024-02-28T04:07:55;2.10;99.90
51950;DHT22;37974;53.218;6.640;2024-02-28T04:10:21;2.60;99.90
51950;DHT22;37974;53.218;6.640;2024-02-28T04:12:47;2.30;99.90
51950;DHT22;37974;53.218;6.640;2024-02-28T04:15:13;2.40;99.90
51950;DHT22;37974;53.218;6.640;2024-02-28T04:17:39;2.20;99.90
51950;DHT22;37974;53.218;6.640;2024-02-28T04:20:10;2.90;99.90
51950;DHT22;37974;53.218;6.640;2024-02-28T04:22:36;2.30;99.90
51950;DHT22;37974;53.218;6.640;2024-02-28T04:25:04;2.40;99.90
51950;DHT22;37974;53.218;6.640;2024-02-28T04:27:30;2.30;99.90
51950;DHT22;37974;53.218;6.640;2024-02-28T04:29:55;2.30;99.90
51950;DHT22;37974;53.218;6.640;2024-02-28T04:32:21;2.30;99.90
51950;DHT22;37974;53.218;6.640;2024-02-28T04:34:46;2.90;99.90
51950;DHT22;37974;53.218;6.640;2024-02-28T04:37:12;2.50;99.90
51950;DHT22;37974;53.218;6.640;2024-02-28T04:39:38;3.00;99.90
51950;DHT22;37974;53.218;6.640;2024-02-28T04:42:04;2.50;99.90
51950;DHT22;37974;53.218;6.640;2024-02-28T04:44:29;2.50;99.90
51950;DHT22;37974;53.218;6.640;2024-02-28T04:46:55;3.10;99.90
51950;DHT22;37974;53.218;6.640;2024-02-28T04:49:21;3.00;99.90
51950;DHT22;37974;53.218;6.640;2024-02-28T04:51:47;2.60;99.90
51950;DHT22;37974;53.218;6.640;2024-02-28T04:54:13;2.60;99.90
51950;DHT22;37974;53.218;6.640;2024-02-28T04:56:42;2.60;99.90
51950;DHT22;37974;53.218;6.640;2024-02-28T04:59:09;3.30;99.90
51950;DHT22;37974;53.218;6.640;2024-02-28T05:01:36;2.90;99.90
51950;DHT22;37974;53.218;6.640;2024-02-28T05:04:06;2.60;99.90
51950;DHT22;37974;53.218;6.640;2024-02-28T05:06:32;3.10;99.90
51950;DHT22;37974;53.218;6.640;2024-02-28T05:08:58;2.70;99.90
51950;DHT22;37974;53.218;6.640;2024-02-28T05:11:23;2.70;99.90
51950;DHT22;37974;53.218;6.640;2024-02-28T05:13:49;3.30;99.90
51950;DHT22;37974;53.218;6.640;2024-02-28T05:16:15;2.70;99.90
51950;DHT22;37974;53.218;6.640;2024-02-28T05:18:41;2.70;99.90
51950;DHT22;37974;53.218;6.640;2024-02-28T05:21:07;2.70;99.90
51950;DHT22;37974;53.218;6.640;2024-02-28T05:23:33;3.20;99.90
51950;DHT22;37974;53.218;6.640;2024-02-28T05:25:59;2.70;99.90
51950;DHT22;37974;53.218;6.640;2024-02-28T05:28:30;2.80;99.90
51950;DHT22;37974;53.218;6.640;2024-02-28T05:30:56;2.90;99.90
51950;DHT22;37974;53.218;6.640;2024-02-28T05:33:22;2.80;99.90
51950;DHT22;37974;53.218;6.640;2024-02-28T05:35:48;3.30;99.90
51950;DHT22;37974;53.218;6.640;2024-02-28T05:38:13;3.10;99.90
51950;DHT22;37974;53.218;6.640;2024-02-28T05:40:41;2.90;99.90
51950;DHT22;37974;53.218;6.640;2024-02-28T05:43:07;2.90;99.90
51950;DHT22;37974;53.218;6.640;2024-02-28T05:45:33;3.10;99.90
51950;DHT22;37974;53.218;6.640;2024-02-28T05:47:59;3.60;99.90
51950;DHT22;37974;53.218;6.640;2024-02-28T05:50:24;3.20;99.90
51950;DHT22;37974;53.218;6.640;2024-02-28T05:52:50;3.80;99.90
51950;DHT22;37974;53.218;6.640;2024-02-28T05:55:17;2.90;99.90
51950;DHT22;37974;53.218;6.640;2024-02-28T05:57:43;3.00;99.90
51950;DHT22;37974;53.218;6.640;2024-02-28T06:00:09;2.90;99.90
51950;DHT22;37974;53.218;6.640;2024-02-28T06:02:37;2.90;99.90
51950;DHT22;37974;53.218;6.640;2024-02-28T06:05:03;3.00;99.90
51950;DHT22;37974;53.218;6.640;2024-02-28T06:07:29;2.90;99.90
51950;DHT22;37974;53.218;6.640;2024-02-28T06:09:55;3.00;99.90
51950;DHT22;37974;53.218;6.640;2024-02-28T06:12:21;3.60;99.90
51950;DHT22;37974;53.218;6.640;2024-02-28T06:14:47;3.10;99.90
51950;DHT22;37974;53.218;6.640;2024-02-28T06:17:13;3.00;99.90
51950;DHT22;37974;53.218;6.640;2024-02-28T06:19:38;3.50;99.90
51950;DHT22;37974;53.218;6.640;2024-02-28T06:22:04;3.50;99.90
51950;DHT22;37974;53.218;6.640;2024-02-28T06:24:30;2.90;99.90
51950;DHT22;37974;53.218;6.640;2024-02-28T06:26:58;3.00;99.90
51950;DHT22;37974;53.218;6.640;2024-02-28T06:29:24;3.60;99.90
51950;DHT22;37974;53.218;6.640;2024-02-28T06:31:51;3.40;99.90
51950;DHT22;37974;53.218;6.640;2024-02-28T06:34:17;3.00;99.90
51950;DHT22;37974;53.218;6.640;2024-02-28T06:36:44;3.10;99.90
51950;DHT22;37974;53.218;6.640;2024-02-28T06:39:10;3.40;99.90
51950;DHT22;37974;53.218;6.640;2024-02-28T06:41:35;3.10;99.90
51950;DHT22;37974;53.218;6.640;2024-02-28T06:44:01;3.60;99.90
51950;DHT22;37974;53.218;6.640;2024-02-28T06:46:27;3.10;99.90
51950;DHT22;37974;53.218;6.640;2024-02-28T06:48:53;3.10;99.90
51950;DHT22;37974;53.218;6.640;2024-02-28T06:51:18;3.10;99.90
51950;DHT22;37974;53.218;6.640;2024-02-28T06:53:44;3.10;99.90
51950;DHT22;37974;53.218;6.640;2024-02-28T06:56:10;3.80;99.90
51950;DHT22;37974;53.218;6.640;2024-02-28T06:58:36;3.10;99.90
51950;DHT22;37974;53.218;6.640;2024-02-28T07:01:02;3.00;99.90
51950;DHT22;37974;53.218;6.640;2024-02-28T07:03:29;3.10;99.90
51950;DHT22;37974;53.218;6.640;2024-02-28T07:05:55;3.10;99.90
51950;DHT22;37974;53.218;6.640;2024-02-28T07:08:21;3.20;99.90
51950;DHT22;37974;53.218;6.640;2024-02-28T07:10:47;3.20;99.90
51950;DHT22;37974;53.218;6.640;2024-02-28T07:13:15;3.20;99.90
51950;DHT22;37974;53.218;6.640;2024-02-28T07:15:41;3.40;99.90
51950;DHT22;37974;53.218;6.640;2024-02-28T07:18:07;3.20;99.90
51950;DHT22;37974;53.218;6.640;2024-02-28T07:20:33;3.60;99.90
51950;DHT22;37974;53.218;6.640;2024-02-28T07:22:59;3.80;99.90
51950;DHT22;37974;53.218;6.640;2024-02-28T07:25:25;3.80;99.90
51950;DHT22;37974;53.218;6.640;2024-02-28T07:27:51;3.30;99.90
51950;DHT22;37974;53.218;6.640;2024-02-28T07:30:17;3.40;99.90
51950;DHT22;37974;53.218;6.640;2024-02-28T07:32:43;3.50;99.90
51950;DHT22;37974;53.218;6.640;2024-02-28T07:35:08;3.90;99.90
51950;DHT22;37974;53.218;6.640;2024-02-28T07:37:34;3.40;99.90
51950;DHT22;37974;53.218;6.640;2024-02-28T07:40:00;3.60;99.90
51950;DHT22;37974;53.218;6.640;2024-02-28T07:42:25;3.50;99.90
51950;DHT22;37974;53.218;6.640;2024-02-28T07:44:52;3.60;99.90
51950;DHT22;37974;53.218;6.640;2024-02-28T07:47:22;3.60;99.90
51950;DHT22;37974;53.218;6.640;2024-02-28T07:49:48;3.80;99.90
51950;DHT22;37974;53.218;6.640;2024-02-28T07:52:14;3.80;99.90
51950;DHT22;37974;53.218;6.640;2024-02-28T07:54:43;3.90;99.90
51950;DHT22;37974;53.218;6.640;2024-02-28T07:57:08;3.90;99.90
51950;DHT22;37974;53.218;6.640;2024-02-28T07:59:40;3.90;99.90
51950;DHT22;37974;53.218;6.640;2024-02-28T08:02:06;3.90;99.90
51950;DHT22;37974;53.218;6.640;2024-02-28T08:04:31;4.00;99.90
51950;DHT22;37974;53.218;6.640;2024-02-28T08:06:57;4.10;99.90
51950;DHT22;37974;53.218;6.640;2024-02-28T08:09:23;4.10;99.90
51950;DHT22;37974;53.218;6.640;2024-02-28T08:11:48;4.10;99.90
51950;DHT22;37974;53.218;6.640;2024-02-28T08:14:14;4.20;99.90
51950;DHT22;37974;53.218;6.640;2024-02-28T08:16:40;4.30;99.90
51950;DHT22;37974;53.218;6.640;2024-02-28T08:19:06;4.30;99.90
51950;DHT22;37974;53.218;6.640;2024-02-28T08:21:31;4.40;99.90
51950;DHT22;37974;53.218;6.640;2024-02-28T08:23:57;4.70;99.90
51950;DHT22;37974;53.218;6.640;2024-02-28T08:26:23;4.50;99.90
51950;DHT22;37974;53.218;6.640;2024-02-28T08:28:49;4.60;99.90
51950;DHT22;37974;53.218;6.640;2024-02-28T08:31:16;4.70;99.90
51950;DHT22;37974;53.218;6.640;2024-02-28T08:33:42;4.50;99.90
51950;DHT22;37974;53.218;6.640;2024-02-28T08:36:07;4.60;99.90
51950;DHT22;37974;53.218;6.640;2024-02-28T08:38:33;4.70;99.90
51950;DHT22;37974;53.218;6.640;2024-02-28T08:41:00;4.80;99.90
51950;DHT22;37974;53.218;6.640;2024-02-28T08:43:25;4.80;99.90
51950;DHT22;37974;53.218;6.640;2024-02-28T08:45:51;4.80;99.90
51950;DHT22;37974;53.218;6.640;2024-02-28T08:48:17;4.90;99.90
51950;DHT22;37974;53.218;6.640;2024-02-28T08:50:43;4.80;99.90
51950;DHT22;37974;53.218;6.640;2024-02-28T08:53:09;5.00;99.90
51950;DHT22;37974;53.218;6.640;2024-02-28T08:55:34;4.90;99.90
51950;DHT22;37974;53.218;6.640;2024-02-28T08:58:00;5.10;99.90
51950;DHT22;37974;53.218;6.640;2024-02-28T09:00:26;5.00;99.90
51950;DHT22;37974;53.218;6.640;2024-02-28T09:02:51;5.10;99.90
51950;DHT22;37974;53.218;6.640;2024-02-28T09:05:17;5.10;99.90
51950;DHT22;37974;53.218;6.640;2024-02-28T09:07:44;5.20;99.90
51950;DHT22;37974;53.218;6.640;2024-02-28T09:10:09;5.20;99.90
51950;DHT22;37974;53.218;6.640;2024-02-28T09:12:36;5.20;99.90
51950;DHT22;37974;53.218;6.640;2024-02-28T09:15:02;5.30;99.90
51950;DHT22;37974;53.218;6.640;2024-02-28T09:17:28;5.30;99.90
51950;DHT22;37974;53.218;6.640;2024-02-28T09:19:53;5.30;99.90
51950;DHT22;37974;53.218;6.640;2024-02-28T09:22:20;5.30;99.90
51950;DHT22;37974;53.218;6.640;2024-02-28T09:24:46;5.40;99.90
51950;DHT22;37974;53.218;6.640;2024-02-28T09:27:13;5.50;99.90
51950;DHT22;37974;53.218;6.640;2024-02-28T09:29:39;5.80;99.90
51950;DHT22;37974;53.218;6.640;2024-02-28T09:32:05;5.50;99.90
51950;DHT22;37974;53.218;6.640;2024-02-28T09:34:30;5.60;99.90
51950;DHT22;37974;53.218;6.640;2024-02-28T09:36:56;5.60;99.90
51950;DHT22;37974;53.218;6.640;2024-02-28T09:39:22;5.70;99.90
51950;DHT22;37974;53.218;6.640;2024-02-28T09:41:48;5.80;99.90
51950;DHT22;37974;53.218;6.640;2024-02-28T09:44:16;5.80;99.90
51950;DHT22;37974;53.218;6.640;2024-02-28T09:46:41;5.80;99.90
51950;DHT22;37974;53.218;6.640;2024-02-28T09:49:09;5.80;99.90
51950;DHT22;37974;53.218;6.640;2024-02-28T09:51:36;5.80;99.90
51950;DHT22;37974;53.218;6.640;2024-02-28T09:54:03;5.90;99.90
51950;DHT22;37974;53.218;6.640;2024-02-28T09:56:31;5.90;99.90
51950;DHT22;37974;53.218;6.640;2024-02-28T09:58:57;6.00;99.90
51950;DHT22;37974;53.218;6.640;2024-02-28T10:01:23;6.00;99.90
51950;DHT22;37974;53.218;6.640;2024-02-28T10:03:52;6.10;99.90
51950;DHT22;37974;53.218;6.640;2024-02-28T10:06:18;6.20;99.90
51950;DHT22;37974;53.218;6.640;2024-02-28T10:08:44;6.30;99.90
51950;DHT22;37974;53.218;6.640;2024-02-28T10:11:18;6.30;99.90
51950;DHT22;37974;53.218;6.640;2024-02-28T10:13:44;6.40;99.90
51950;DHT22;37974;53.218;6.640;2024-02-28T10:16:09;6.40;99.90
51950;DHT22;37974;53.218;6.640;2024-02-28T10:18:35;6.40;99.90
51950;DHT22;37974;53.218;6.640;2024-02-28T10:21:01;6.50;99.90
51950;DHT22;37974;53.218;6.640;2024-02-28T10:23:27;6.50;99.90
51950;DHT22;37974;53.218;6.640;2024-02-28T10:25:53;6.60;99.90
51950;DHT22;37974;53.218;6.640;2024-02-28T10:28:18;6.50;99.90
51950;DHT22;37974;53.218;6.640;2024-02-28T10:30:44;6.60;99.90
51950;DHT22;37974;53.218;6.640;2024-02-28T10:33:12;6.70;99.90
51950;DHT22;37974;53.218;6.640;2024-02-28T10:35:40;6.70;99.90
51950;DHT22;37974;53.218;6.640;2024-02-28T10:38:06;6.70;99.90
51950;DHT22;37974;53.218;6.640;2024-02-28T10:40:32;6.60;99.90
51950;DHT22;37974;53.218;6.640;2024-02-28T10:42:58;6.60;99.90
51950;DHT22;37974;53.218;6.640;2024-02-28T10:45:27;6.60;99.90
51950;DHT22;37974;53.218;6.640;2024-02-28T10:47:56;6.60;99.90
51950;DHT22;37974;53.218;6.640;2024-02-28T10:50:22;6.60;99.90
51950;DHT22;37974;53.218;6.640;2024-02-28T10:52:48;6.60;99.90
51950;DHT22;37974;53.218;6.640;2024-02-28T10:55:21;6.60;99.90
51950;DHT22;37974;53.218;6.640;2024-02-28T10:57:57;6.60;99.90
51950;DHT22;37974;53.218;6.640;2024-02-28T11:00:23;6.50;99.90
51950;DHT22;37974;53.218;6.640;2024-02-28T11:02:49;6.50;99.90
51950;DHT22;37974;53.218;6.640;2024-02-28T11:05:15;6.50;99.90
51950;DHT22;37974;53.218;6.640;2024-02-28T11:07:41;6.50;99.90
51950;DHT22;37974;53.218;6.640;2024-02-28T11:10:08;6.50;99.90
51950;DHT22;37974;53.218;6.640;2024-02-28T11:12:36;6.50;99.90
51950;DHT22;37974;53.218;6.640;2024-02-28T11:15:03;6.60;99.90
51950;DHT22;37974;53.218;6.640;2024-02-28T11:17:32;6.70;99.90
51950;DHT22;37974;53.218;6.640;2024-02-28T11:19:59;6.80;99.90
51950;DHT22;37974;53.218;6.640;2024-02-28T11:22:28;6.90;99.90
51950;DHT22;37974;53.218;6.640;2024-02-28T11:24:54;7.00;99.90
51950;DHT22;37974;53.218;6.640;2024-02-28T11:27:21;7.00;99.90
51950;DHT22;37974;53.218;6.640;2024-02-28T11:29:47;7.10;99.90
51950;DHT22;37974;53.218;6.640;2024-02-28T11:32:15;7.10;99.90
51950;DHT22;37974;53.218;6.640;2024-02-28T11:34:42;7.20;99.90
51950;DHT22;37974;53.218;6.640;2024-02-28T11:37:09;7.20;99.90
51950;DHT22;37974;53.218;6.640;2024-02-28T11:39:35;7.30;99.90
51950;DHT22;37974;53.218;6.640;2024-02-28T11:42:09;7.40;99.90
51950;DHT22;37974;53.218;6.640;2024-02-28T11:44:35;7.50;99.90
51950;DHT22;37974;53.218;6.640;2024-02-28T11:47:01;7.60;99.90
51950;DHT22;37974;53.218;6.640;2024-02-28T11:49:28;7.70;99.90
51950;DHT22;37974;53.218;6.640;2024-02-28T11:51:53;7.80;99.90
51950;DHT22;37974;53.218;6.640;2024-02-28T11:54:19;7.90;99.90
51950;DHT22;37974;53.218;6.640;2024-02-28T11:56:45;7.90;99.90
51950;DHT22;37974;53.218;6.640;2024-02-28T11:59:11;7.90;99.90
51950;DHT22;37974;53.218;6.640;2024-02-28T12:01:42;8.00;99.90
51950;DHT22;37974;53.218;6.640;2024-02-28T12:04:09;8.00;99.90
51950;DHT22;37974;53.218;6.640;2024-02-28T12:06:36;8.00;99.90
51950;DHT22;37974;53.218;6.640;2024-02-28T12:09:04;8.00;99.90
51950;DHT22;37974;53.218;6.640;2024-02-28T12:11:31;8.00;99.90
51950;DHT22;37974;53.218;6.640;2024-02-28T12:13:57;7.90;99.90
51950;DHT22;37974;53.218;6.640;2024-02-28T12:16:25;7.90;99.90
51950;DHT22;37974;53.218;6.640;2024-02-28T12:18:52;7.90;99.90
51950;DHT22;37974;53.218;6.640;2024-02-28T12:21:19;7.80;99.90
51950;DHT22;37974;53.218;6.640;2024-02-28T12:23:46;7.80;99.90
51950;DHT22;37974;53.218;6.640;2024-02-28T12:26:11;7.70;99.90
51950;DHT22;37974;53.218;6.640;2024-02-28T12:28:37;7.70;99.90
51950;DHT22;37974;53.218;6.640;2024-02-28T12:31:03;7.70;99.90
51950;DHT22;37974;53.218;6.640;2024-02-28T12:33:30;7.70;99.90
51950;DHT22;37974;53.218;6.640;2024-02-28T12:35:58;7.70;99.90
51950;DHT22;37974;53.218;6.640;2024-02-28T12:38:23;7.70;99.90
51950;DHT22;37974;53.218;6.640;2024-02-28T12:40:49;7.70;99.90
51950;DHT22;37974;53.218;6.640;2024-02-28T12:43:15;7.70;99.90
51950;DHT22;37974;53.218;6.640;2024-02-28T12:45:41;7.70;99.90
51950;DHT22;37974;53.218;6.640;2024-02-28T12:48:08;7.60;99.90
51950;DHT22;37974;53.218;6.640;2024-02-28T12:50:34;7.60;99.90
51950;DHT22;37974;53.218;6.640;2024-02-28T12:53:00;7.60;99.90
51950;DHT22;37974;53.218;6.640;2024-02-28T12:55:26;7.60;99.90
51950;DHT22;37974;53.218;6.640;2024-02-28T12:57:52;7.60;99.90
51950;DHT22;37974;53.218;6.640;2024-02-28T13:00:18;7.60;99.90
51950;DHT22;37974;53.218;6.640;2024-02-28T13:02:44;7.50;99.90
51950;DHT22;37974;53.218;6.640;2024-02-28T13:05:11;7.50;99.90
51950;DHT22;37974;53.218;6.640;2024-02-28T13:07:39;7.50;99.90
51950;DHT22;37974;53.218;6.640;2024-02-28T13:10:06;7.00;99.90
51950;DHT22;37974;53.218;6.640;2024-02-28T13:12:32;7.50;99.90
51950;DHT22;37974;53.218;6.640;2024-02-28T13:14:58;7.50;99.90
51950;DHT22;37974;53.218;6.640;2024-02-28T13:17:24;7.40;99.90
51950;DHT22;37974;53.218;6.640;2024-02-28T13:19:51;7.40;99.90
51950;DHT22;37974;53.218;6.640;2024-02-28T13:22:16;7.40;99.90
51950;DHT22;37974;53.218;6.640;2024-02-28T13:24:42;7.40;99.90
51950;DHT22;37974;53.218;6.640;2024-02-28T13:27:08;7.40;99.90
51950;DHT22;37974;53.218;6.640;2024-02-28T13:29:35;7.40;99.90
51950;DHT22;37974;53.218;6.640;2024-02-28T13:32:01;7.40;99.90
51950;DHT22;37974;53.218;6.640;2024-02-28T13:34:27;7.40;99.90
51950;DHT22;37974;53.218;6.640;2024-02-28T13:36:55;7.40;99.90
51950;DHT22;37974;53.218;6.640;2024-02-28T13:39:21;7.50;99.90
51950;DHT22;37974;53.218;6.640;2024-02-28T13:41:49;7.50;99.90
51950;DHT22;37974;53.218;6.640;2024-02-28T13:44:17;7.60;99.90
51950;DHT22;37974;53.218;6.640;2024-02-28T13:46:45;7.60;99.90
51950;DHT22;37974;53.218;6.640;2024-02-28T13:49:11;7.60;99.90
51950;DHT22;37974;53.218;6.640;2024-02-28T13:51:38;7.60;99.90
51950;DHT22;37974;53.218;6.640;2024-02-28T13:54:03;7.60;99.90
51950;DHT22;37974;53.218;6.640;2024-02-28T13:56:29;7.60;99.90
51950;DHT22;37974;53.218;6.640;2024-02-28T13:58:56;7.50;99.90
51950;DHT22;37974;53.218;6.640;2024-02-28T14:01:22;7.50;99.90
51950;DHT22;37974;53.218;6.640;2024-02-28T14:03:48;7.50;99.90
51950;DHT22;37974;53.218;6.640;2024-02-28T14:06:13;7.40;99.90
51950;DHT22;37974;53.218;6.640;2024-02-28T14:08:39;7.40;99.90
51950;DHT22;37974;53.218;6.640;2024-02-28T14:11:05;7.50;99.90
51950;DHT22;37974;53.218;6.640;2024-02-28T14:13:31;7.50;99.90
51950;DHT22;37974;53.218;6.640;2024-02-28T14:15:57;7.60;99.90
51950;DHT22;37974;53.218;6.640;2024-02-28T14:18:23;7.70;99.90
51950;DHT22;37974;53.218;6.640;2024-02-28T14:20:49;7.80;99.90
51950;DHT22;37974;53.218;6.640;2024-02-28T14:23:14;7.80;99.90
51950;DHT22;37974;53.218;6.640;2024-02-28T14:25:40;7.90;99.90
51950;DHT22;37974;53.218;6.640;2024-02-28T14:28:07;7.90;99.90
51950;DHT22;37974;53.218;6.640;2024-02-28T14:30:33;7.90;99.90
51950;DHT22;37974;53.218;6.640;2024-02-28T14:32:59;7.80;99.90
51950;DHT22;37974;53.218;6.640;2024-02-28T14:35:25;7.80;99.90
51950;DHT22;37974;53.218;6.640;2024-02-28T14:37:51;7.80;99.90
51950;DHT22;37974;53.218;6.640;2024-02-28T14:40:18;7.80;99.90
51950;DHT22;37974;53.218;6.640;2024-02-28T14:42:44;7.90;99.90
51950;DHT22;37974;53.218;6.640;2024-02-28T14:45:11;7.90;99.90
51950;DHT22;37974;53.218;6.640;2024-02-28T14:47:38;7.90;99.90
51950;DHT22;37974;53.218;6.640;2024-02-28T14:50:05;7.90;99.90
51950;DHT22;37974;53.218;6.640;2024-02-28T14:52:35;7.90;99.90
51950;DHT22;37974;53.218;6.640;2024-02-28T14:55:01;8.00;99.90
51950;DHT22;37974;53.218;6.640;2024-02-28T14:57:27;8.00;99.90
51950;DHT22;37974;53.218;6.640;2024-02-28T14:59:55;8.00;99.90
51950;DHT22;37974;53.218;6.640;2024-02-28T15:02:21;8.00;99.90
51950;DHT22;37974;53.218;6.640;2024-02-28T15:04:46;8.10;99.90
51950;DHT22;37974;53.218;6.640;2024-02-28T15:07:13;8.00;99.90
51950;DHT22;37974;53.218;6.640;2024-02-28T15:09:38;8.10;99.90
51950;DHT22;37974;53.218;6.640;2024-02-28T15:12:04;8.20;99.90
51950;DHT22;37974;53.218;6.640;2024-02-28T15:14:30;8.20;99.90
51950;DHT22;37974;53.218;6.640;2024-02-28T15:16:56;8.20;99.90
51950;DHT22;37974;53.218;6.640;2024-02-28T15:19:24;8.20;99.90
51950;DHT22;37974;53.218;6.640;2024-02-28T15:21:52;8.20;99.90
51950;DHT22;37974;53.218;6.640;2024-02-28T15:24:18;8.10;99.90
51950;DHT22;37974;53.218;6.640;2024-02-28T15:26:45;8.20;99.90
51950;DHT22;37974;53.218;6.640;2024-02-28T15:29:10;8.20;99.90
51950;DHT22;37974;53.218;6.640;2024-02-28T15:31:38;8.30;99.90
51950;DHT22;37974;53.218;6.640;2024-02-28T15:34:04;8.30;99.90
51950;DHT22;37974;53.218;6.640;2024-02-28T15:36:30;8.30;99.90
51950;DHT22;37974;53.218;6.640;2024-02-28T15:38:55;8.30;99.90